Airport ICAO


07:28 UTC

14°C


An affordable passengers' Moving Map for your aircraft. Made for the iPad and the iPhone
More information here

EGLC City


London UNITED KINGDOM   VFR


METAR EGLC 200720Z AUTO 21005KT 170V330 9999 NCD 14/11 Q1020 0h08min

TAF EGLC 200504Z 2006/2015 24005KT 9999 SCT040 PROB30 TEMPO 2006/2008 8000 2h24min





NOTAMS

OPEN